Cave Rock, Nevada
Current Conditions -  °F | °C
As of 5:53 AM on Wednesday 26 Nov 2014 (Local Time) from KTVL Reporting Station
Clear Clear  
Wind Chill: 28°   Ceiling: Unl
Heat Index: 28°   Visibility: 7mi
Dew Point: 22°   Wind: 3mph
Humidity: 78%   Direction: 200°SSW
Pressure: 30.5"   Gusts: NA
Location:  39.0164°N, 119.925°W
Report Text: KTVL 261353Z AUTO 20003KT 7SM CLR M02/M06 A3050 RMK AO2 SLP328 T10221056
Loading
Personal Weather Stations






























Interactive Weather Map New forecast layout! Learn more

10-Day Weather Forecast

Advertisements
Track Severe Weather on mobile